Time;durP1;ratioP1;P1;durP2;ratioP2;P2;SDS_P1;SDS_P2;PMS_P1;PMS_P2;Temp;Humidity;BMP_temperature;BMP_pressure;BME280_temperature;BME280_humidity;BME280_pressure;Samples;Min_cycle;Max_cycle;Signal;HPM_P1;HPM_P2
2021/09/23 00:02:06;;;;;;;1.40;1.30;;;18.30;69.80;;;;;;4980746;28;95812;-52
2021/09/23 00:04:39;;;;;;;1.50;1.10;;;18.40;69.80;;;;;;4979459;28;96285;-54
2021/09/23 00:07:13;;;;;;;1.10;1.00;;;18.40;69.70;;;;;;4984596;28;95938;-57
2021/09/23 00:09:45;;;;;;;3.58;1.27;;;18.40;69.80;;;;;;4976090;28;101166;-55
2021/09/23 00:12:17;;;;;;;0.90;0.90;;;18.40;69.80;;;;;;4980659;28;95980;-54
2021/09/23 00:14:48;;;;;;;1.20;1.10;;;18.40;70.50;;;;;;4977053;28;96748;-52
2021/09/23 00:17:19;;;;;;;1.00;0.90;;;18.30;69.90;;;;;;4981160;28;98280;-48
2021/09/23 00:19:51;;;;;;;1.90;1.20;;;18.40;69.80;;;;;;4985417;28;95342;-50
2021/09/23 00:22:21;;;;;;;2.58;1.10;;;18.40;70.10;;;;;;4985850;28;95338;-48
2021/09/23 00:24:52;;;;;;;2.45;0.95;;;18.40;70.50;;;;;;4982030;28;96078;-50
2021/09/23 00:27:22;;;;;;;1.50;1.38;;;18.40;70.70;;;;;;4983431;28;95795;-49
2021/09/23 00:29:52;;;;;;;1.38;1.10;;;18.50;71.00;;;;;;4986211;28;95840;-50
2021/09/23 00:32:23;;;;;;;1.65;1.17;;;18.50;71.10;;;;;;4981272;28;95388;-49
2021/09/23 00:34:54;;;;;;;0.93;0.80;;;18.60;70.90;;;;;;4986915;28;96045;-52
2021/09/23 00:37:25;;;;;;;1.15;1.00;;;18.60;70.90;;;;;;4983411;28;95613;-49
2021/09/23 00:39:56;;;;;;;;;;;18.60;70.80;;;;;;4985917;28;95964;-48
2021/09/23 00:42:27;;;;;;;2.90;1.00;;;18.60;70.80;;;;;;4987426;28;98079;-52
2021/09/23 00:45:02;;;;;;;2.70;1.00;;;18.70;60.90;;;;;;4985269;28;95862;-55
2021/09/23 00:47:32;;;;;;;1.77;1.10;;;18.70;71.00;;;;;;4978261;28;98086;-51
2021/09/23 00:50:07;;;;;;;2.00;0.90;;;18.80;71.50;;;;;;5018434;28;95824;-51
2021/09/23 00:52:39;;;;;;;1.10;0.98;;;18.80;70.90;;;;;;5017125;28;95913;-53
2021/09/23 00:55:13;;;;;;;0.95;0.90;;;18.90;71.00;;;;;;4981598;28;98443;-55
2021/09/23 00:57:45;;;;;;;1.35;1.15;;;19.00;70.90;;;;;;4981321;28;97385;-49
2021/09/23 01:00:19;;;;;;;1.92;1.00;;;19.10;70.80;;;;;;5010060;28;95483;-52
2021/09/23 01:03:04;;;;;;;1.92;1.02;;;19.20;70.70;;;;;;5008978;27;96645;-49
2021/09/23 01:05:40;;;;;;;1.17;1.08;;;19.20;70.60;;;;;;4981382;28;98305;-48
2021/09/23 01:08:12;;;;;;;1.10;1.00;;;19.40;70.60;;;;;;4979820;28;96252;-54
2021/09/23 01:10:45;;;;;;;1.00;1.00;;;19.40;70.60;;;;;;4979547;28;96173;-49
2021/09/23 01:13:16;;;;;;;1.00;1.00;;;19.50;70.50;;;;;;5015624;27;95718;-53
2021/09/23 01:16:05;;;;;;;0.85;0.70;;;19.60;70.50;;;;;;4978043;28;95961;-53
2021/09/23 01:18:56;;;;;;;0.90;0.90;;;19.70;70.40;;;;;;4981591;28;95196;-53
2021/09/23 01:21:30;;;;;;;0.95;0.95;;;19.80;70.30;;;;;;4984904;28;96001;-54
2021/09/23 01:24:00;;;;;;;1.30;0.85;;;19.90;70.20;;;;;;4977026;28;95988;-52
2021/09/23 01:26:30;;;;;;;1.00;0.90;;;20.00;70.10;;;;;;4983829;28;96793;-54
2021/09/23 01:29:20;;;;;;;1.50;0.77;;;20.10;70.00;;;;;;4983881;28;95711;-55
2021/09/23 01:31:58;;;;;;;1.33;1.05;;;20.10;69.90;;;;;;4978116;28;95766;-53
2021/09/23 01:34:31;;;;;;;1.20;1.10;;;20.20;69.80;;;;;;4982797;28;95926;-51
2021/09/23 01:37:09;;;;;;;0.80;0.75;;;20.30;69.80;;;;;;4985464;28;96539;-54
2021/09/23 01:39:48;;;;;;;0.85;0.85;;;20.40;69.60;;;;;;4983662;28;97769;-51
2021/09/23 01:42:26;;;;;;;1.27;1.17;;;20.50;69.60;;;;;;4983024;28;95442;-55
2021/09/23 01:44:57;;;;;;;1.20;1.10;;;20.50;69.50;;;;;;4980450;28;95430;-56
2021/09/23 01:47:29;;;;;;;1.30;0.70;;;20.60;69.50;;;;;;4982256;28;96185;-55
2021/09/23 01:50:01;;;;;;;0.77;0.70;;;20.70;69.40;;;;;;4983862;28;98332;-54
2021/09/23 01:52:35;;;;;;;1.17;0.70;;;20.70;69.20;;;;;;4982832;28;95932;-50
2021/09/23 01:55:14;;;;;;;1.30;0.98;;;20.80;69.30;;;;;;4986730;28;96900;-53
2021/09/23 01:57:47;;;;;;;1.63;0.88;;;20.90;69.20;;;;;;4999387;28;98711;-54
2021/09/23 02:00:22;;;;;;;4.40;0.95;;;20.90;69.00;;;;;;4979411;28;96239;-49
2021/09/23 02:02:55;;;;;;;0.90;0.90;;;21.00;69.00;;;;;;4985200;28;95352;-55
2021/09/23 02:05:42;;;;;;;1.52;1.20;;;21.00;69.50;;;;;;5015656;28;95944;-50
2021/09/23 02:08:13;;;;;;;1.67;1.58;;;21.00;66.60;;;;;;4976117;28;96179;-53
2021/09/23 02:10:44;;;;;;;;;;;20.80;66.80;;;;;;4974749;28;97310;-53
2021/09/23 02:13:16;;;;;;;1.10;1.00;;;20.70;67.60;;;;;;4984152;28;95899;-54
2021/09/23 02:15:47;;;;;;;1.38;1.17;;;20.60;67.90;;;;;;4978279;28;95404;-54
2021/09/23 02:18:20;;;;;;;1.00;0.90;;;20.70;68.10;;;;;;4982332;28;98855;-51
2021/09/23 02:20:53;;;;;;;1.60;1.30;;;20.80;68.10;;;;;;5015779;28;97166;-56
2021/09/23 02:23:23;;;;;;;2.63;1.17;;;20.90;68.20;;;;;;4980313;28;96369;-55
2021/09/23 02:25:55;;;;;;;0.70;0.70;;;21.00;68.20;;;;;;4986150;28;96254;-52
2021/09/23 02:28:26;;;;;;;2.15;1.42;;;21.00;68.10;;;;;;4985306;28;98374;-52
2021/09/23 02:30:57;;;;;;;0.73;0.73;;;21.10;68.00;;;;;;4978959;28;97354;-54
2021/09/23 02:33:29;;;;;;;1.23;1.13;;;21.20;68.00;;;;;;4978902;28;95325;-49
2021/09/23 02:35:59;;;;;;;1.10;1.00;;;21.20;68.10;;;;;;4982363;28;98258;-53
2021/09/23 02:38:30;;;;;;;1.00;1.00;;;21.30;68.20;;;;;;4983981;28;98030;-50
2021/09/23 02:41:02;;;;;;;1.33;1.05;;;21.50;68.00;;;;;;4984398;28;96452;-54
2021/09/23 02:43:33;;;;;;;1.23;1.08;;;21.60;67.90;;;;;;4986825;28;95747;-53
2021/09/23 02:46:04;;;;;;;1.10;1.00;;;21.70;67.70;;;;;;5014295;28;96132;-54
2021/09/23 02:48:36;;;;;;;0.93;0.90;;;21.80;67.60;;;;;;4983175;28;96923;-53
2021/09/23 02:51:09;;;;;;;0.87;0.87;;;22.00;67.40;;;;;;4986286;28;98790;-50
2021/09/23 02:53:41;;;;;;;1.17;1.08;;;22.10;67.30;;;;;;4980740;28;96268;-56
2021/09/23 02:56:11;;;;;;;;;;;22.20;67.00;;;;;;4986337;28;95958;-51
2021/09/23 02:58:43;;;;;;;0.95;0.75;;;22.30;66.80;;;;;;4985692;28;98445;-51
2021/09/23 03:01:15;;;;;;;1.05;1.00;;;22.40;66.70;;;;;;4983202;28;95464;-55
2021/09/23 03:03:47;;;;;;;1.15;1.05;;;22.50;66.50;;;;;;4985624;28;95688;-52
2021/09/23 03:06:19;;;;;;;0.77;0.77;;;22.60;66.30;;;;;;4986507;28;96168;-55
2021/09/23 03:08:50;;;;;;;1.20;1.10;;;22.70;66.20;;;;;;4981391;28;96398;-53
2021/09/23 03:11:21;;;;;;;1.08;0.98;;;22.80;66.00;;;;;;4982248;28;96234;-55
2021/09/23 03:13:52;;;;;;;1.20;1.10;;;22.90;65.90;;;;;;5017684;28;96360;-55
2021/09/23 03:16:24;;;;;;;1.17;1.08;;;23.00;65.80;;;;;;4981793;28;96081;-52
2021/09/23 03:18:55;;;;;;;1.20;1.10;;;23.00;65.60;;;;;;5013067;28;97967;-50
2021/09/23 03:21:25;;;;;;;3.80;2.75;;;23.10;65.50;;;;;;4985503;28;96092;-55
2021/09/23 03:23:55;;;;;;;3.88;2.72;;;23.10;63.10;;;;;;4981851;28;95892;-52
2021/09/23 03:26:25;;;;;;;4.43;2.83;;;23.00;63.10;;;;;;4988059;28;95640;-52
2021/09/23 03:28:55;;;;;;;3.65;2.38;;;22.90;63.00;;;;;;4984231;28;97927;-53
2021/09/23 03:31:27;;;;;;;3.35;2.30;;;22.90;63.20;;;;;;4981816;28;95978;-53
2021/09/23 03:33:58;;;;;;;3.95;2.70;;;22.80;63.20;;;;;;4983985;28;95634;-54
2021/09/23 03:36:28;;;;;;;2.53;2.27;;;22.70;63.70;;;;;;4986731;28;95680;-52
2021/09/23 03:39:00;;;;;;;3.95;2.30;;;22.60;63.60;;;;;;4998036;28;98042;-52
2021/09/23 03:41:32;;;;;;;3.88;2.45;;;22.60;64.20;;;;;;4974000;28;95821;-53
2021/09/23 03:44:02;;;;;;;3.05;2.30;;;22.50;63.70;;;;;;4986000;28;95561;-54
2021/09/23 03:46:34;;;;;;;3.60;2.10;;;22.50;64.00;;;;;;5011828;28;95991;-53
2021/09/23 03:49:05;;;;;;;2.88;2.20;;;22.50;64.20;;;;;;4999387;28;100497;-53
2021/09/23 03:51:36;;;;;;;2.97;2.22;;;22.50;64.30;;;;;;4979929;28;95236;-49
2021/09/23 03:54:07;;;;;;;3.00;1.98;;;22.50;64.20;;;;;;4984784;28;95797;-50
2021/09/23 03:56:40;;;;;;;3.13;2.20;;;22.50;63.80;;;;;;4998066;28;97217;-50
2021/09/23 03:59:12;;;;;;;2.60;2.38;;;22.40;63.20;;;;;;5017878;28;97383;-47
2021/09/23 04:01:45;;;;;;;3.22;1.98;;;22.40;63.10;;;;;;4977779;28;96187;-50
2021/09/23 04:04:18;;;;;;;2.83;2.10;;;22.30;64.10;;;;;;4985067;28;95324;-47
2021/09/23 04:06:49;;;;;;;2.22;2.00;;;22.40;63.70;;;;;;4985225;28;95728;-51
2021/09/23 04:09:20;;;;;;;3.07;2.00;;;22.30;63.90;;;;;;4974337;28;98109;-46
2021/09/23 04:11:54;;;;;;;6.32;3.10;;;22.40;64.20;;;;;;4983092;28;96371;-47
2021/09/23 04:14:26;;;;;;;7.40;5.18;;;22.40;64.10;;;;;;4985022;28;96337;-48
2021/09/23 04:16:58;;;;;;;7.88;5.22;;;22.30;63.20;;;;;;4981884;28;96056;-48
2021/09/23 04:19:30;;;;;;;7.28;5.13;;;22.30;63.30;;;;;;4982768;28;98261;-48
2021/09/23 04:22:01;;;;;;;9.18;5.30;;;22.20;63.60;;;;;;4980614;28;96021;-48
2021/09/23 04:24:31;;;;;;;8.82;4.57;;;22.10;63.70;;;;;;4981458;28;95344;-52
2021/09/23 04:27:01;;;;;;;8.38;5.00;;;22.10;63.90;;;;;;5017579;28;95813;-50
2021/09/23 04:29:31;;;;;;;7.47;4.32;;;22.10;64.00;;;;;;4981045;28;96044;-47
2021/09/23 04:32:01;;;;;;;7.53;4.93;;;22.10;64.20;;;;;;4976190;28;97408;-50
2021/09/23 04:34:34;;;;;;;8.85;5.38;;;22.00;64.30;;;;;;4981277;28;96076;-47
2021/09/23 04:37:05;;;;;;;6.75;4.85;;;22.00;64.40;;;;;;4979744;28;95981;-48
2021/09/23 04:39:37;;;;;;;7.22;4.40;;;22.00;64.60;;;;;;4980605;28;96425;-52
2021/09/23 04:42:10;;;;;;;7.78;4.38;;;21.90;64.70;;;;;;4982477;28;98053;-51
2021/09/23 04:44:45;;;;;;;7.32;5.00;;;21.90;65.00;;;;;;4984031;28;95862;-49
2021/09/23 04:47:16;;;;;;;6.13;4.43;;;22.00;65.10;;;;;;4975657;28;98410;-50
2021/09/23 04:49:49;;;;;;;5.35;3.97;;;22.00;65.30;;;;;;4984146;28;95882;-52
2021/09/23 04:52:21;;;;;;;5.93;4.10;;;22.10;65.50;;;;;;4970732;28;99134;-53
2021/09/23 04:54:53;;;;;;;5.80;3.60;;;22.10;65.50;;;;;;4983804;28;96179;-50
2021/09/23 04:57:26;;;;;;;5.55;3.70;;;22.20;66.30;;;;;;4994117;28;95632;-48
2021/09/23 05:00:04;;;;;;;8.52;5.53;;;22.30;65.70;;;;;;4984414;28;97978;-51
2021/09/23 05:02:48;;;;;;;9.85;4.90;;;22.20;64.80;;;;;;4981472;28;97063;-48
2021/09/23 05:05:19;;;;;;;6.65;5.10;;;22.20;64.50;;;;;;4981476;28;95956;-54
2021/09/23 05:07:50;;;;;;;;;;;22.20;64.50;;;;;;4980424;28;95462;-54
2021/09/23 05:10:22;;;;;;;6.70;3.55;;;22.10;64.50;;;;;;4972398;28;97085;-50
2021/09/23 05:12:52;;;;;;;;;;;22.10;64.60;;;;;;4997943;28;95993;-49
2021/09/23 05:15:24;;;;;;;7.40;4.00;;;22.10;54.70;;;;;;4980865;28;96591;-52
2021/09/23 05:17:54;;;;;;;7.18;3.70;;;22.10;64.70;;;;;;5014297;27;95751;-50
2021/09/23 05:20:24;;;;;;;4.97;3.77;;;22.00;64.70;;;;;;4983276;28;96545;-50
2021/09/23 05:22:55;;;;;;;6.43;3.55;;;22.00;64.80;;;;;;4982986;28;95338;-49
2021/09/23 05:25:30;;;;;;;4.32;3.42;;;22.00;64.80;;;;;;4983138;28;95841;-51
2021/09/23 05:28:00;;;;;;;4.47;3.33;;;21.90;64.80;;;;;;4982364;28;95888;-49
2021/09/23 05:30:31;;;;;;;5.20;3.22;;;21.90;64.80;;;;;;4979120;28;96905;-51
2021/09/23 05:33:01;;;;;;;;;;;21.90;64.90;;;;;;4984011;28;95301;-49
2021/09/23 05:35:31;;;;;;;4.75;3.17;;;21.80;64.90;;;;;;4985728;28;95741;-55
2021/09/23 05:38:02;;;;;;;5.93;3.50;;;21.80;64.90;;;;;;4983856;28;95998;-54
2021/09/23 05:40:33;;;;;;;4.85;2.92;;;21.80;65.70;;;;;;4983374;28;96671;-54
2021/09/23 05:43:05;;;;;;;4.13;3.10;;;21.80;65.00;;;;;;4983709;28;95864;-53
2021/09/23 05:45:37;;;;;;;4.25;2.65;;;21.80;65.10;;;;;;4979650;28;95352;-49
2021/09/23 05:48:08;;;;;;;3.05;2.67;;;21.70;65.10;;;;;;4985610;28;95730;-50
2021/09/23 05:50:39;;;;;;;4.97;3.05;;;21.80;55.30;;;;;;4985068;28;96092;-52
2021/09/23 05:53:10;;;;;;;3.10;2.50;;;21.70;65.20;;;;;;4976623;28;95773;-54
2021/09/23 05:55:41;;;;;;;3.65;2.75;;;21.70;65.20;;;;;;4986101;28;95627;-54
2021/09/23 05:58:16;;;;;;;3.38;2.72;;;21.70;65.20;;;;;;4985095;28;95618;-50
2021/09/23 06:00:48;;;;;;;3.50;2.30;;;21.70;65.30;;;;;;4980526;28;95958;-51
2021/09/23 06:03:19;;;;;;;4.15;2.30;;;21.60;65.20;;;;;;4988976;28;95881;-50
2021/09/23 06:05:51;;;;;;;3.45;2.55;;;21.60;65.20;;;;;;4988926;28;96047;-51
2021/09/23 06:08:21;;;;;;;;;;;21.60;65.30;;;;;;4984467;28;98813;-49
2021/09/23 06:10:53;;;;;;;4.07;2.60;;;21.60;65.30;;;;;;4984152;28;95988;-47
2021/09/23 06:13:24;;;;;;;4.13;2.70;;;21.50;65.20;;;;;;4982033;28;95966;-53
2021/09/23 06:15:56;;;;;;;2.50;2.22;;;21.50;65.30;;;;;;4991177;27;95568;-50
2021/09/23 06:18:27;;;;;;;2.90;2.38;;;21.50;65.40;;;;;;4982719;28;95520;-50
2021/09/23 06:20:57;;;;;;;2.65;2.33;;;21.50;65.60;;;;;;4989686;28;96574;-49
2021/09/23 06:23:27;;;;;;;3.97;2.20;;;21.40;65.60;;;;;;5009236;27;97301;-51
2021/09/23 06:25:57;;;;;;;2.83;2.30;;;21.40;65.80;;;;;;4989617;28;97001;-51
2021/09/23 06:28:27;;;;;;;2.50;2.30;;;21.40;65.80;;;;;;4987969;28;95472;-50
2021/09/23 06:30:59;;;;;;;2.72;2.03;;;21.40;65.80;;;;;;4989329;28;96657;-50
2021/09/23 06:33:29;;;;;;;3.42;2.28;;;21.40;65.80;;;;;;4989436;28;95755;-51
2021/09/23 06:36:00;;;;;;;2.37;1.97;;;21.40;65.80;;;;;;5013234;27;95539;-50
2021/09/23 06:38:34;;;;;;;2.30;1.98;;;21.40;65.90;;;;;;4987823;28;96185;-52
2021/09/23 06:41:06;;;;;;;3.72;2.22;;;21.30;65.90;;;;;;4988439;28;95915;-50
2021/09/23 06:43:39;;;;;;;2.58;2.38;;;21.30;65.90;;;;;;4989422;28;95927;-51
2021/09/23 06:46:12;;;;;;;2.72;2.53;;;21.30;66.00;;;;;;4984798;28;96067;-52
2021/09/23 06:48:44;;;;;;;2.20;2.00;;;21.30;66.10;;;;;;4989698;28;95811;-52
2021/09/23 06:51:15;;;;;;;3.17;2.90;;;21.20;66.00;;;;;;4987027;28;96598;-51
2021/09/23 06:53:50;;;;;;;2.05;1.88;;;21.30;66.10;;;;;;4979017;28;95822;-50
2021/09/23 06:56:21;;;;;;;2.93;2.00;;;21.20;66.10;;;;;;4987676;28;95540;-49
2021/09/23 06:58:52;;;;;;;2.85;2.10;;;21.20;66.10;;;;;;4989703;28;95954;-50
2021/09/23 07:01:34;;;;;;;2.00;1.80;;;21.20;66.10;;;;;;4983455;28;95845;-52
2021/09/23 07:04:24;;;;;;;1.95;1.45;;;21.20;66.10;;;;;;5012325;27;95951;-54
2021/09/23 07:07:25;;;;;;;2.67;2.00;;;21.10;66.00;;;;;;4977738;28;95308;-51
2021/09/23 07:10:00;;;;;;;2.38;2.15;;;21.10;66.10;;;;;;4981707;28;95984;-52
2021/09/23 07:12:34;;;;;;;2.35;2.15;;;21.10;66.10;;;;;;4991377;28;98615;-53
2021/09/23 07:15:06;;;;;;;4.70;2.50;;;21.10;66.20;;;;;;4983844;28;97166;-53
2021/09/23 07:17:39;;;;;;;2.97;2.47;;;21.10;66.00;;;;;;4986438;28;95240;-51
2021/09/23 07:20:09;;;;;;;2.65;2.45;;;21.10;66.10;;;;;;4989487;28;95606;-51
2021/09/23 07:22:40;;;;;;;2.33;1.92;;;21.10;66.20;;;;;;4987935;28;95832;-51
2021/09/23 07:25:10;;;;;;;;;;;21.10;66.20;;;;;;4984597;28;95866;-50
2021/09/23 07:27:40;;;;;;;2.33;2.10;;;21.10;66.20;;;;;;4988239;28;95249;-55
2021/09/23 07:30:11;;;;;;;2.30;2.10;;;21.00;66.10;;;;;;4982687;28;95637;-50
2021/09/23 07:32:41;;;;;;;;;;;21.00;66.20;;;;;;4985888;28;98201;-51
2021/09/23 07:35:16;;;;;;;3.00;1.92;;;21.00;66.30;;;;;;4987942;28;96042;-52
2021/09/23 07:37:48;;;;;;;3.95;2.10;;;21.00;66.20;;;;;;4982044;28;96752;-54
2021/09/23 07:40:21;;;;;;;2.33;2.00;;;21.00;66.60;;;;;;4986248;28;95845;-49
2021/09/23 07:42:52;;;;;;;6.53;2.75;;;21.10;66.80;;;;;;5001039;28;96882;-53
2021/09/23 07:45:23;;;;;;;2.30;2.10;;;21.10;67.10;;;;;;4973467;28;97535;-50
2021/09/23 07:47:55;;;;;;;2.05;1.85;;;21.10;66.90;;;;;;4984241;28;95789;-50
2021/09/23 07:50:25;;;;;;;2.88;2.03;;;21.10;67.10;;;;;;4980584;28;96044;-50
2021/09/23 07:52:56;;;;;;;2.05;1.90;;;21.10;66.50;;;;;;4983697;28;99293;-49
2021/09/23 07:55:29;;;;;;;2.15;1.95;;;21.10;66.70;;;;;;4984888;28;96078;-49
2021/09/23 07:58:00;;;;;;;2.75;1.77;;;21.00;66.60;;;;;;4981856;28;95836;-50
2021/09/23 08:00:32;;;;;;;3.40;3.10;;;21.00;66.50;;;;;;4982859;28;95835;-51
2021/09/23 08:03:04;;;;;;;1.48;1.38;;;21.00;66.60;;;;;;4968684;28;98044;-49
2021/09/23 08:05:38;;;;;;;1.95;1.85;;;21.00;66.60;;;;;;4981350;28;96285;-50
2021/09/23 08:08:10;;;;;;;1.70;1.60;;;21.00;66.30;;;;;;4995718;28;96111;-48
2021/09/23 08:10:41;;;;;;;1.85;1.75;;;21.00;66.40;;;;;;4974308;28;96054;-50
2021/09/23 08:13:14;;;;;;;2.20;2.00;;;21.00;66.40;;;;;;4981619;28;98184;-48
2021/09/23 08:15:46;;;;;;;2.50;2.30;;;21.00;66.30;;;;;;4979637;28;97282;-49
2021/09/23 08:18:30;;;;;;;2.83;2.00;;;21.00;66.40;;;;;;4978191;28;96175;-48
2021/09/23 08:21:10;;;;;;;3.35;3.15;;;21.00;66.20;;;;;;4982927;28;97366;-49
2021/09/23 08:23:40;;;;;;;2.20;2.00;;;21.00;66.30;;;;;;4984499;28;98298;-48
2021/09/23 08:26:23;;;;;;;;;;;20.90;66.30;;;;;;4981549;28;95763;-48
2021/09/23 08:28:56;;;;;;;2.45;2.22;;;20.90;66.70;;;;;;4985078;28;95900;-48
2021/09/23 08:31:28;;;;;;;1.77;1.65;;;20.90;66.70;;;;;;4994250;28;96335;-49
2021/09/23 08:34:03;;;;;;;1.83;1.70;;;20.90;66.80;;;;;;4983327;28;95858;-48
2021/09/23 08:36:34;;;;;;;5.45;2.30;;;20.90;66.90;;;;;;4984691;28;96289;-49
2021/09/23 08:39:08;;;;;;;1.50;1.40;;;20.90;66.90;;;;;;4983177;28;98146;-47
2021/09/23 08:41:39;;;;;;;2.15;1.95;;;20.90;66.90;;;;;;4986317;28;95246;-49
2021/09/23 08:44:09;;;;;;;2.05;1.80;;;20.90;56.70;;;;;;4982826;28;96646;-51
2021/09/23 08:46:41;;;;;;;2.33;2.13;;;20.80;67.10;;;;;;4978353;28;97930;-48
2021/09/23 08:49:14;;;;;;;2.22;1.90;;;20.80;67.20;;;;;;4984581;28;96219;-51
2021/09/23 08:51:48;;;;;;;3.13;2.30;;;20.80;67.20;;;;;;4984439;28;97848;-49
2021/09/23 08:54:21;;;;;;;2.28;2.00;;;20.80;67.30;;;;;;4984481;28;96363;-49
2021/09/23 08:56:59;;;;;;;1.92;1.83;;;20.80;67.40;;;;;;4983894;28;95878;-49
2021/09/23 08:59:32;;;;;;;2.92;2.63;;;20.70;67.40;;;;;;4980525;28;95357;-49
2021/09/23 09:02:27;;;;;;;2.47;2.28;;;20.80;67.30;;;;;;4978356;28;96236;-49
2021/09/23 09:05:19;;;;;;;3.88;2.65;;;20.70;67.50;;;;;;4985610;28;95939;-49
2021/09/23 09:08:28;;;;;;;3.00;2.28;;;20.70;67.50;;;;;;4952520;28;95924;-50
2021/09/23 09:11:12;;;;;;;4.95;2.80;;;20.70;67.50;;;;;;4980876;28;95915;-49
2021/09/23 09:13:47;;;;;;;2.80;2.58;;;20.70;67.60;;;;;;4968377;28;96083;-49
2021/09/23 09:16:21;;;;;;;2.55;2.22;;;20.70;67.60;;;;;;5010302;27;99677;-50
2021/09/23 09:19:00;;;;;;;2.95;2.38;;;20.70;67.60;;;;;;4982474;28;97433;-52
2021/09/23 09:21:33;;;;;;;3.78;2.58;;;20.60;67.60;;;;;;5017770;27;95936;-50
2021/09/23 09:24:06;;;;;;;2.40;2.20;;;20.60;67.50;;;;;;4984953;28;95909;-49
2021/09/23 09:26:43;;;;;;;2.53;2.13;;;20.60;67.60;;;;;;4980231;28;97975;-50
2021/09/23 09:29:22;;;;;;;3.13;2.13;;;20.70;57.50;;;;;;4990569;28;97977;-51
2021/09/23 09:31:52;;;;;;;4.22;2.25;;;20.60;67.80;;;;;;4979489;28;98301;-49
2021/09/23 09:34:24;;;;;;;2.83;2.17;;;20.50;67.80;;;;;;4982683;28;95470;-50
2021/09/23 09:37:02;;;;;;;2.50;2.13;;;20.50;67.80;;;;;;5015308;27;96711;-50
2021/09/23 09:39:45;;;;;;;3.17;2.30;;;20.50;68.00;;;;;;4978254;28;95796;-48
2021/09/23 09:42:17;;;;;;;4.00;2.15;;;20.40;67.90;;;;;;4983043;28;95931;-52
2021/09/23 09:44:54;;;;;;;;;;;20.40;67.70;;;;;;4984972;28;95265;-49
2021/09/23 09:47:33;;;;;;;2.50;2.30;;;20.40;67.40;;;;;;4981398;28;95922;-49
2021/09/23 09:50:14;;;;;;;3.42;2.05;;;20.40;67.40;;;;;;4975299;28;96078;-49
2021/09/23 09:52:57;;;;;;;2.03;1.92;;;20.40;67.30;;;;;;4984242;28;95803;-51
2021/09/23 09:55:34;;;;;;;3.30;2.33;;;20.30;67.40;;;;;;4987782;28;98170;-47
2021/09/23 09:58:06;;;;;;;2.33;2.13;;;20.30;67.70;;;;;;4970506;28;98713;-49
2021/09/23 10:00:41;;;;;;;2.95;2.67;;;20.30;67.90;;;;;;4981796;28;97357;-51
2021/09/23 10:03:12;;;;;;;2.53;2.10;;;20.20;68.10;;;;;;4985930;28;95878;-51
2021/09/23 10:05:45;;;;;;;4.25;2.25;;;20.20;68.30;;;;;;4988373;28;95840;-51
2021/09/23 10:08:21;;;;;;;2.40;2.10;;;20.20;68.20;;;;;;4979660;28;96094;-54
2021/09/23 10:10:53;;;;;;;5.20;2.38;;;20.10;68.30;;;;;;5013744;27;97746;-54
2021/09/23 10:13:28;;;;;;;3.45;2.92;;;20.10;68.50;;;;;;4985797;28;95603;-50
2021/09/23 10:16:01;;;;;;;4.07;2.22;;;20.10;69.00;;;;;;4979864;28;96153;-52
2021/09/23 10:18:35;;;;;;;3.38;1.90;;;20.10;69.60;;;;;;4985841;28;98183;-48
2021/09/23 10:21:07;;;;;;;2.30;2.05;;;20.10;69.90;;;;;;4982614;28;97351;-50
2021/09/23 10:23:41;;;;;;;6.70;2.33;;;20.10;70.10;;;;;;4985366;28;98319;-49
2021/09/23 10:26:17;;;;;;;3.55;2.03;;;20.00;70.10;;;;;;4985441;28;95683;-49
2021/09/23 10:28:53;;;;;;;3.95;2.42;;;20.00;70.20;;;;;;4985373;28;96172;-49
2021/09/23 10:31:34;;;;;;;3.90;2.45;;;19.90;70.20;;;;;;4981992;28;98886;-54
2021/09/23 10:34:11;;;;;;;4.70;2.00;;;19.90;70.20;;;;;;4985733;28;95796;-51
2021/09/23 10:36:42;;;;;;;2.08;1.83;;;19.90;70.20;;;;;;4986579;28;96062;-53
2021/09/23 10:39:17;;;;;;;3.03;1.83;;;19.80;70.20;;;;;;4985192;28;98120;-48
2021/09/23 10:41:48;;;;;;;8.77;2.40;;;19.80;70.10;;;;;;4984119;28;96462;-52
2021/09/23 10:44:21;;;;;;;2.95;1.90;;;19.80;70.30;;;;;;4985648;28;95918;-51
2021/09/23 10:46:53;;;;;;;2.15;1.80;;;19.80;70.40;;;;;;4988957;27;95942;-48
2021/09/23 10:49:27;;;;;;;2.22;1.98;;;19.70;70.50;;;;;;4988024;28;96506;-51
2021/09/23 10:51:59;;;;;;;2.10;1.88;;;19.70;70.70;;;;;;5022135;27;97270;-48
2021/09/23 10:54:31;;;;;;;2.95;1.90;;;19.60;70.50;;;;;;4987115;28;95508;-53
2021/09/23 10:57:02;;;;;;;1.70;1.60;;;19.60;70.70;;;;;;4987283;28;95871;-50
2021/09/23 10:59:34;;;;;;;2.15;1.90;;;19.60;70.90;;;;;;4987596;28;97963;-48
2021/09/23 11:02:25;;;;;;;2.10;1.88;;;19.60;70.80;;;;;;4983690;28;95726;-52
2021/09/23 11:05:01;;;;;;;2.63;2.15;;;19.50;70.80;;;;;;4986851;28;95747;-50
2021/09/23 11:07:34;;;;;;;2.65;1.40;;;19.50;71.10;;;;;;4987467;28;96075;-49
2021/09/23 11:10:14;;;;;;;1.77;1.67;;;19.50;70.80;;;;;;4985687;28;97999;-54
2021/09/23 11:12:49;;;;;;;2.70;1.83;;;19.50;70.80;;;;;;5003797;27;97839;-50
2021/09/23 11:15:29;;;;;;;2.75;2.00;;;19.50;70.80;;;;;;4983918;28;96133;-49
2021/09/23 11:18:02;;;;;;;2.40;1.90;;;19.50;70.80;;;;;;4979360;28;95400;-52
2021/09/23 11:20:34;;;;;;;3.55;1.90;;;19.40;70.80;;;;;;4993703;28;98089;-50
2021/09/23 11:23:10;;;;;;;2.33;1.67;;;19.40;70.70;;;;;;5012584;27;95702;-55
2021/09/23 11:25:49;;;;;;;1.90;1.60;;;19.40;70.80;;;;;;5011038;27;95599;-53
2021/09/23 11:28:25;;;;;;;2.35;2.05;;;19.40;70.80;;;;;;5008697;27;95455;-51
2021/09/23 11:30:55;;;;;;;1.80;1.70;;;19.40;60.30;;;;;;5010994;27;98126;-55
2021/09/23 11:33:28;;;;;;;1.60;1.50;;;19.40;70.70;;;;;;4998552;28;96133;-52
2021/09/23 11:36:00;;;;;;;1.80;1.70;;;19.30;70.70;;;;;;5011904;27;95346;-52
2021/09/23 11:38:30;;;;;;;1.85;1.60;;;19.30;70.70;;;;;;4990817;28;96428;-53
2021/09/23 11:41:08;;;;;;;1.60;1.50;;;19.30;70.70;;;;;;5016285;27;96868;-49
2021/09/23 11:43:40;;;;;;;1.73;1.60;;;19.20;70.60;;;;;;4976834;28;98229;-53
2021/09/23 11:46:13;;;;;;;2.10;1.60;;;19.20;70.70;;;;;;4975110;28;95744;-53
2021/09/23 11:48:44;;;;;;;2.08;1.70;;;19.20;70.70;;;;;;4982387;28;95686;-50
2021/09/23 11:51:29;;;;;;;2.58;1.67;;;19.20;70.70;;;;;;4986312;28;96596;-51
2021/09/23 11:54:01;;;;;;;2.15;1.60;;;19.20;70.70;;;;;;5012265;27;98208;-49
2021/09/23 11:56:42;;;;;;;2.13;1.90;;;19.10;70.70;;;;;;4983996;28;95527;-48
2021/09/23 11:59:24;;;;;;;2.35;1.98;;;19.20;60.20;;;;;;4991510;28;95849;-50
2021/09/23 12:02:04;;;;;;;1.60;1.50;;;19.10;70.80;;;;;;5006490;27;97015;-51
2021/09/23 12:04:36;;;;;;;1.75;1.60;;;19.10;70.80;;;;;;4997995;28;95738;-50
2021/09/23 12:07:10;;;;;;;1.50;1.35;;;19.10;70.70;;;;;;4984743;28;95956;-51
2021/09/23 12:10:17;;;;;;;1.92;1.83;;;19.00;70.80;;;;;;4992609;28;95506;-54
2021/09/23 12:12:58;;;;;;;1.92;1.80;;;19.00;70.70;;;;;;4993102;28;97931;-49
2021/09/23 12:15:32;;;;;;;1.55;1.45;;;19.00;70.70;;;;;;4974276;28;95955;-53
2021/09/23 12:18:10;;;;;;;2.33;2.00;;;19.00;70.80;;;;;;4987408;28;95742;-53
2021/09/23 12:20:53;;;;;;;1.92;1.73;;;18.90;70.80;;;;;;4987385;28;95623;-50
2021/09/23 12:23:35;;;;;;;2.00;1.88;;;18.90;70.80;;;;;;4987421;28;95863;-55
2021/09/23 12:26:22;;;;;;;1.83;1.73;;;18.90;70.80;;;;;;4987906;28;95649;-54
2021/09/23 12:29:08;;;;;;;1.60;1.50;;;18.80;70.80;;;;;;4986895;28;95611;-53
2021/09/23 12:31:41;;;;;;;3.38;2.00;;;18.80;70.70;;;;;;4998979;27;95550;-55
2021/09/23 12:34:23;;;;;;;1.90;1.77;;;18.80;70.80;;;;;;4967783;28;96396;-50
2021/09/23 12:37:06;;;;;;;3.25;2.10;;;18.80;70.80;;;;;;4966508;28;97317;-54
2021/09/23 12:40:07;;;;;;;2.92;2.60;;;18.80;70.90;;;;;;4977101;28;97000;-52
2021/09/23 12:42:42;;;;;;;3.00;2.10;;;18.70;70.80;;;;;;4992578;28;96373;-51
2021/09/23 12:45:20;;;;;;;2.60;1.90;;;18.80;71.00;;;;;;4980201;28;96089;-50
2021/09/23 12:47:58;;;;;;;2.65;2.45;;;18.80;71.10;;;;;;4972477;28;101918;-53
2021/09/23 12:50:46;;;;;;;4.07;2.80;;;18.80;70.80;;;;;;4987151;28;95685;-53
2021/09/23 12:53:20;;;;;;;3.83;3.35;;;18.80;70.70;;;;;;4973927;28;95953;-48
2021/09/23 12:55:55;;;;;;;3.30;3.00;;;18.80;70.60;;;;;;4983593;28;95881;-48
2021/09/23 12:58:26;;;;;;;4.15;3.42;;;18.70;70.50;;;;;;4986010;28;95760;-52
2021/09/23 13:00:57;;;;;;;4.88;4.18;;;18.80;70.50;;;;;;5012649;28;95993;-56
2021/09/23 13:03:32;;;;;;;4.07;3.67;;;18.80;70.70;;;;;;4984225;28;95967;-52
2021/09/23 13:06:12;;;;;;;4.45;4.05;;;18.80;70.80;;;;;;4983563;28;96307;-54
2021/09/23 13:08:53;;;;;;;4.50;4.10;;;18.70;70.70;;;;;;4977622;28;97301;-52
2021/09/23 13:11:31;;;;;;;6.15;4.68;;;18.80;70.70;;;;;;4977385;28;96040;-56
2021/09/23 13:14:23;;;;;;;4.68;4.18;;;18.80;70.80;;;;;;4952019;28;97234;-51
2021/09/23 13:17:24;;;;;;;4.35;3.95;;;18.70;70.70;;;;;;4979732;28;98857;-54
2021/09/23 13:19:58;;;;;;;5.50;4.47;;;18.70;70.70;;;;;;4984194;28;96284;-51
2021/09/23 13:22:40;;;;;;;5.70;4.57;;;18.70;71.30;;;;;;4983797;28;95303;-54
2021/09/23 13:25:13;;;;;;;5.03;4.07;;;18.70;70.70;;;;;;4973347;28;97726;-53
2021/09/23 13:27:49;;;;;;;4.32;3.90;;;18.70;70.70;;;;;;4981781;28;96247;-54